createdAt,value
2018-05-25T00:00:07.283Z,2.93
2018-05-25T00:02:37.999Z,1.43
2018-05-25T00:05:09.242Z,3.77
2018-05-25T00:07:40.193Z,2.43
2018-05-25T00:10:09.978Z,1.17
2018-05-25T00:12:39.959Z,1.53
2018-05-25T00:15:10.537Z,2.87
2018-05-25T00:17:40.241Z,1.50
2018-05-25T00:20:10.033Z,1.73
2018-05-25T00:22:40.032Z,1.80
2018-05-25T00:25:10.928Z,2.27
2018-05-25T00:27:41.366Z,1.93
2018-05-25T00:30:11.143Z,3.57
2018-05-25T00:32:41.007Z,2.00
2018-05-25T00:35:11.140Z,1.27
2018-05-25T00:37:40.928Z,2.73
2018-05-25T00:40:12.117Z,3.70
2018-05-25T00:42:43.758Z,2.70
2018-05-25T00:45:15.672Z,2.33
2018-05-25T00:47:46.708Z,1.60
2018-05-25T00:50:18.772Z,1.53
2018-05-25T00:52:50.068Z,1.73
2018-05-25T00:55:31.622Z,1.37
2018-05-25T00:58:02.462Z,1.30
2018-05-25T01:00:33.283Z,2.10
2018-05-25T01:03:04.381Z,3.00
2018-05-25T01:05:34.887Z,2.80
2018-05-25T01:08:05.180Z,2.20
2018-05-25T01:10:35.336Z,2.60
2018-05-25T01:13:05.525Z,2.17
2018-05-25T01:15:35.752Z,2.33
2018-05-25T01:18:05.978Z,1.70
2018-05-25T01:20:36.379Z,1.87
2018-05-25T01:23:06.612Z,1.70
2018-05-25T01:25:36.684Z,1.57
2018-05-25T01:28:07.272Z,2.23
2018-05-25T01:30:38.422Z,2.30
2018-05-25T01:33:09.036Z,2.87
2018-05-25T01:35:39.994Z,1.63
2018-05-25T01:38:11.278Z,2.50
2018-05-25T01:40:42.183Z,2.70
2018-05-25T01:43:12.905Z,2.77
2018-05-25T01:45:42.961Z,1.40
2018-05-25T01:48:13.037Z,1.43
2018-05-25T01:50:43.109Z,2.30
2018-05-25T01:53:13.489Z,2.97
2018-05-25T01:55:44.430Z,2.37
2018-05-25T01:58:15.618Z,2.43
2018-05-25T02:00:45.822Z,3.30
2018-05-25T02:03:16.540Z,3.57
2018-05-25T02:05:48.348Z,1.60
2018-05-25T02:08:19.988Z,1.57
2018-05-25T02:10:50.311Z,1.23
2018-05-25T02:13:22.333Z,2.83
2018-05-25T02:15:53.221Z,1.90
2018-05-25T02:18:23.856Z,1.77
2018-05-25T02:20:55.948Z,2.17
2018-05-25T02:23:26.142Z,2.23
2018-05-25T02:25:57.263Z,2.03
2018-05-25T02:28:27.657Z,2.57
2018-05-25T02:30:58.235Z,7.30
2018-05-25T02:33:28.856Z,1.63
2018-05-25T02:35:59.380Z,2.80
2018-05-25T02:38:29.891Z,2.60
2018-05-25T02:41:00.675Z,1.83
2018-05-25T02:43:32.359Z,2.33
2018-05-25T02:46:02.824Z,3.60
2018-05-25T02:48:33.160Z,1.40
2018-05-25T02:51:03.668Z,1.47
2018-05-25T02:53:33.996Z,2.13
2018-05-25T02:56:04.300Z,2.30
2018-05-25T02:58:34.533Z,3.50
2018-05-25T03:01:05.156Z,2.53
2018-05-25T03:03:35.954Z,2.03
2018-05-25T03:06:08.608Z,4.57
2018-05-25T03:08:38.830Z,1.77
2018-05-25T03:11:09.466Z,4.23
2018-05-25T03:13:39.777Z,3.53
2018-05-25T03:16:09.921Z,2.73
2018-05-25T03:18:41.168Z,2.47
2018-05-25T03:21:16.463Z,3.53
2018-05-25T03:23:47.830Z,1.60
2018-05-25T03:26:18.052Z,2.97
2018-05-25T03:28:48.316Z,3.63
2018-05-25T03:31:18.527Z,3.37
2018-05-25T03:33:49.564Z,2.63
2018-05-25T03:36:19.976Z,3.17
2018-05-25T03:38:51.303Z,4.47
2018-05-25T03:41:21.754Z,3.63
2018-05-25T03:43:52.813Z,1.77
2018-05-25T03:46:24.243Z,3.87
2018-05-25T03:48:54.558Z,2.23
2018-05-25T03:51:24.815Z,2.37
2018-05-25T03:53:55.826Z,1.40
2018-05-25T03:56:26.308Z,5.83
2018-05-25T03:59:07.461Z,6.20
2018-05-25T04:01:48.817Z,5.13
2018-05-25T04:04:19.546Z,4.73
2018-05-25T04:06:50.830Z,2.50
2018-05-25T04:09:22.071Z,4.37
2018-05-25T04:11:52.898Z,4.00
2018-05-25T04:14:23.685Z,4.20
2018-05-25T04:16:54.457Z,2.90
2018-05-25T04:19:24.691Z,5.03
2018-05-25T04:21:54.732Z,6.23
2018-05-25T04:24:25.983Z,4.70
2018-05-25T04:26:56.260Z,4.40
2018-05-25T04:29:26.488Z,6.27
2018-05-25T04:31:57.544Z,8.57
2018-05-25T04:34:28.078Z,9.10
2018-05-25T04:36:59.492Z,5.37
2018-05-25T04:39:29.954Z,6.13
2018-05-25T04:42:00.044Z,6.13
2018-05-25T04:44:30.221Z,5.03
2018-05-25T04:47:00.698Z,5.70
2018-05-25T04:49:30.903Z,6.70
2018-05-25T04:52:01.421Z,5.50
2018-05-25T04:54:31.626Z,8.17
2018-05-25T04:57:02.546Z,6.20
2018-05-25T04:59:32.698Z,7.77
2018-05-25T05:02:03.170Z,6.47
2018-05-25T05:04:34.023Z,8.63
2018-05-25T05:07:04.320Z,7.70
2018-05-25T05:09:34.670Z,7.70
2018-05-25T05:12:04.801Z,7.53
2018-05-25T05:14:35.121Z,7.07
2018-05-25T05:17:05.360Z,6.80
2018-05-25T05:19:36.500Z,5.73
2018-05-25T05:22:06.739Z,12.77
2018-05-25T05:24:37.913Z,9.27
2018-05-25T05:27:08.449Z,5.93
2018-05-25T05:29:39.435Z,6.77
2018-05-25T05:32:09.653Z,6.50
2018-05-25T05:34:39.961Z,7.50
2018-05-25T05:37:10.490Z,7.00
2018-05-25T05:39:40.643Z,6.77
2018-05-25T05:42:11.875Z,8.17
2018-05-25T05:44:41.996Z,8.20
2018-05-25T05:47:12.660Z,9.13
2018-05-25T05:49:43.254Z,6.50
2018-05-25T05:52:13.297Z,13.10
2018-05-25T05:54:44.434Z,7.20
2018-05-25T05:57:15.445Z,9.40
2018-05-25T05:59:45.472Z,8.80
2018-05-25T06:02:15.548Z,5.83
2018-05-25T06:04:45.822Z,8.73
2018-05-25T06:07:16.003Z,8.17
2018-05-25T06:09:46.385Z,8.27
2018-05-25T06:12:17.603Z,5.27
2018-05-25T06:14:47.862Z,7.93
2018-05-25T06:17:18.012Z,9.40
2018-05-25T06:19:48.683Z,10.13
2018-05-25T06:22:18.997Z,7.70
2018-05-25T06:24:49.217Z,7.63
2018-05-25T06:27:19.561Z,9.43
2018-05-25T06:29:50.465Z,12.27
2018-05-25T06:32:21.392Z,10.67
2018-05-25T06:34:51.725Z,17.47
2018-05-25T06:37:22.108Z,9.87
2018-05-25T06:39:54.729Z,7.90
2018-05-25T06:42:25.399Z,8.40
2018-05-25T06:44:55.904Z,6.27
2018-05-25T06:47:26.469Z,11.53
2018-05-25T06:49:57.714Z,6.87
2018-05-25T06:52:29.249Z,8.97
2018-05-25T06:54:59.692Z,9.40
2018-05-25T06:57:30.847Z,12.80
2018-05-25T07:00:02.073Z,7.97
2018-05-25T07:02:33.173Z,8.30
2018-05-25T07:05:03.669Z,14.03
2018-05-25T07:07:34.832Z,8.47
2018-05-25T07:10:05.353Z,9.83
2018-05-25T07:12:35.703Z,10.57
2018-05-25T07:15:06.363Z,13.83
2018-05-25T07:17:36.865Z,10.33
2018-05-25T07:20:07.219Z,9.67
2018-05-25T07:22:37.527Z,12.90
2018-05-25T07:25:07.664Z,8.00
2018-05-25T07:27:38.208Z,11.43
2018-05-25T07:30:08.338Z,9.70
2018-05-25T07:32:38.903Z,10.03
2018-05-25T07:35:09.252Z,10.60
2018-05-25T07:37:39.946Z,13.30
2018-05-25T07:40:11.327Z,11.17
2018-05-25T07:42:41.705Z,11.40
2018-05-25T07:45:12.015Z,11.97
2018-05-25T07:47:42.406Z,10.17
2018-05-25T07:50:13.039Z,12.43
2018-05-25T07:52:43.341Z,10.80
2018-05-25T08:02:16.057Z,10.73
2018-05-25T08:04:47.227Z,10.27
2018-05-25T08:07:17.342Z,11.70
2018-05-25T08:09:47.671Z,9.13
2018-05-25T08:12:18.070Z,15.40
2018-05-25T08:14:48.851Z,10.00
2018-05-25T08:17:19.647Z,7.90
2018-05-25T08:19:50.645Z,9.50
2018-05-25T08:22:20.890Z,9.70
2018-05-25T08:24:52.052Z,9.97
2018-05-25T08:27:22.921Z,7.70
2018-05-25T08:29:53.515Z,9.27
2018-05-25T08:32:23.791Z,15.00
2018-05-25T08:34:54.017Z,11.30
2018-05-25T08:37:24.346Z,10.43
2018-05-25T08:39:54.689Z,10.17
2018-05-25T08:42:24.750Z,5.90
2018-05-25T08:44:55.132Z,11.33
2018-05-25T08:47:25.831Z,8.60
2018-05-25T08:49:56.130Z,8.70
2018-05-25T08:52:26.280Z,11.97
2018-05-25T08:54:56.281Z,10.90
2018-05-25T08:57:26.399Z,8.10
2018-05-25T08:59:56.766Z,8.97
2018-05-25T09:02:27.159Z,7.80
2018-05-25T09:04:57.275Z,12.33
2018-05-25T09:07:27.392Z,6.93
2018-05-25T09:09:57.818Z,10.07
2018-05-25T09:12:28.229Z,9.57
2018-05-25T09:14:58.693Z,12.03
2018-05-25T09:17:28.996Z,7.23
2018-05-25T09:19:59.247Z,8.53
2018-05-25T09:22:29.411Z,17.03
2018-05-25T09:25:00.615Z,14.37
2018-05-25T09:27:31.021Z,8.57
2018-05-25T09:30:01.357Z,8.67
2018-05-25T09:32:32.085Z,9.50
2018-05-25T09:35:02.215Z,13.90
2018-05-25T09:37:32.667Z,9.63
2018-05-25T09:40:03.696Z,8.53
2018-05-25T09:42:34.128Z,8.83
2018-05-25T09:45:04.235Z,3.60
2018-05-25T09:47:34.649Z,8.80
2018-05-25T09:50:05.178Z,12.40
2018-05-25T09:52:35.587Z,7.87
2018-05-25T09:55:05.900Z,11.30
2018-05-25T09:57:36.437Z,9.17
2018-05-25T10:00:07.183Z,8.00
2018-05-25T10:02:37.418Z,8.20
2018-05-25T10:05:07.949Z,9.37
2018-05-25T10:07:38.052Z,6.77
2018-05-25T10:10:08.594Z,9.40
2018-05-25T10:12:38.907Z,6.97
2018-05-25T10:15:09.311Z,10.67
2018-05-25T10:17:39.776Z,10.60
2018-05-25T10:20:10.318Z,9.63
2018-05-25T10:22:40.921Z,11.07
2018-05-25T10:25:11.047Z,8.17
2018-05-25T10:27:41.386Z,6.73
2018-05-25T10:30:11.619Z,10.67
2018-05-25T10:32:41.831Z,9.23
2018-05-25T10:35:12.054Z,6.63
2018-05-25T10:37:42.482Z,9.73
2018-05-25T10:40:12.785Z,9.80
2018-05-25T10:42:43.052Z,11.53
2018-05-25T10:45:13.758Z,10.37
2018-05-25T10:47:45.129Z,8.13
2018-05-25T10:50:15.455Z,9.17
2018-05-25T10:52:45.831Z,10.37
2018-05-25T10:55:16.659Z,10.07
2018-05-25T10:57:46.722Z,12.33
2018-05-25T11:00:16.737Z,9.17
2018-05-25T11:02:47.070Z,7.40
2018-05-25T11:05:17.077Z,9.27
2018-05-25T11:07:47.487Z,11.40
2018-05-25T11:10:17.955Z,11.70
2018-05-25T11:12:48.258Z,9.83
2018-05-25T11:15:18.648Z,8.67
2018-05-25T11:17:48.686Z,9.83
2018-05-25T11:20:18.910Z,7.30
2018-05-25T11:22:49.335Z,9.43
2018-05-25T11:25:19.468Z,9.47
2018-05-25T11:27:49.891Z,8.07
2018-05-25T11:30:20.192Z,5.60
2018-05-25T11:32:50.330Z,8.00
2018-05-25T11:35:20.663Z,7.23
2018-05-25T11:37:50.766Z,7.87
2018-05-25T11:40:21.097Z,6.40
2018-05-25T11:42:51.540Z,6.50
2018-05-25T11:45:21.886Z,10.23
2018-05-25T11:47:52.260Z,8.90
2018-05-25T11:50:22.488Z,9.13
2018-05-25T11:52:53.009Z,5.17
2018-05-25T11:55:23.526Z,7.03
2018-05-25T11:57:54.412Z,8.53
2018-05-25T12:00:24.613Z,12.37
2018-05-25T12:02:54.934Z,6.47
2018-05-25T12:05:25.102Z,7.93
2018-05-25T12:07:55.282Z,8.83
2018-05-25T12:10:25.530Z,7.80
2018-05-25T12:12:56.561Z,8.10
2018-05-25T12:15:26.596Z,11.53
2018-05-25T12:17:56.908Z,8.83
2018-05-25T12:20:27.238Z,9.10
2018-05-25T12:22:57.373Z,6.47
2018-05-25T12:25:27.418Z,5.00
2018-05-25T12:27:58.239Z,6.43
2018-05-25T12:30:30.098Z,7.70
2018-05-25T12:33:01.621Z,9.40
2018-05-25T12:35:32.869Z,8.40
2018-05-25T12:38:03.799Z,6.83
2018-05-25T12:40:34.258Z,7.27
2018-05-25T12:43:04.442Z,5.87
2018-05-25T12:45:36.393Z,7.17
2018-05-25T12:48:07.704Z,7.77
2018-05-25T12:50:39.293Z,6.37
2018-05-25T12:53:10.501Z,9.10
2018-05-25T12:55:42.256Z,8.27
2018-05-25T12:58:12.822Z,7.90
2018-05-25T13:00:43.128Z,11.37
2018-05-25T13:03:13.922Z,12.30
2018-05-25T13:05:44.020Z,8.67
2018-05-25T13:08:14.062Z,10.60
2018-05-25T13:10:44.268Z,8.90
2018-05-25T13:13:14.819Z,13.67
2018-05-25T13:15:45.099Z,8.00
2018-05-25T13:18:16.139Z,11.30
2018-05-25T13:20:46.388Z,7.63
2018-05-25T13:23:16.781Z,9.90
2018-05-25T13:25:47.228Z,6.83
2018-05-25T13:28:17.250Z,11.87
2018-05-25T13:30:47.621Z,8.73
2018-05-25T13:33:17.991Z,10.03
2018-05-25T13:35:48.022Z,8.67
2018-05-25T13:38:18.610Z,11.77
2018-05-25T13:40:49.702Z,6.83
2018-05-25T13:43:20.053Z,8.83
2018-05-25T13:45:50.150Z,11.30
2018-05-25T13:48:20.208Z,7.77
2018-05-25T13:50:50.281Z,8.23
2018-05-25T13:53:20.522Z,10.10
2018-05-25T13:55:50.724Z,8.83
2018-05-25T13:58:21.085Z,6.80
2018-05-25T14:00:51.776Z,11.33
2018-05-25T14:03:22.609Z,7.50
2018-05-25T14:05:52.744Z,6.33
2018-05-25T14:08:23.810Z,10.30
2018-05-25T14:10:54.225Z,10.10
2018-05-25T14:13:25.088Z,10.37
2018-05-25T14:15:55.415Z,9.60
2018-05-25T14:18:26.135Z,13.30
2018-05-25T14:20:55.996Z,7.87
2018-05-25T14:23:26.191Z,5.60
2018-05-25T14:25:56.977Z,11.17
2018-05-25T14:28:27.272Z,11.80
2018-05-25T14:30:57.620Z,10.17
2018-05-25T14:33:27.800Z,8.50
2018-05-25T14:35:58.830Z,9.50
2018-05-25T14:38:29.047Z,5.93
2018-05-25T14:41:00.324Z,10.77
2018-05-25T14:43:30.499Z,11.57
2018-05-25T14:46:00.729Z,6.63
2018-05-25T14:48:30.863Z,12.63
2018-05-25T14:51:01.183Z,9.10
2018-05-25T14:53:31.176Z,10.67
2018-05-25T14:56:01.399Z,10.73
2018-05-25T14:58:31.720Z,8.03
2018-05-25T15:01:02.073Z,11.70
2018-05-25T15:03:32.366Z,15.17
2018-05-25T15:06:02.608Z,13.13
2018-05-25T15:08:33.004Z,12.70
2018-05-25T15:11:03.136Z,9.33
2018-05-25T15:13:33.438Z,10.07
2018-05-25T15:16:03.605Z,8.40
2018-05-25T15:18:35.083Z,11.63
2018-05-25T15:21:05.449Z,8.77
2018-05-25T15:23:36.172Z,6.93
2018-05-25T15:26:06.551Z,8.67
2018-05-25T15:28:36.927Z,8.83
2018-05-25T15:31:07.761Z,9.03
2018-05-25T15:33:37.812Z,9.83
2018-05-25T15:36:07.855Z,13.90
2018-05-25T15:38:38.227Z,10.27
2018-05-25T15:41:08.578Z,10.97
2018-05-25T15:43:39.451Z,9.27
2018-05-25T15:46:09.519Z,16.37
2018-05-25T15:48:39.268Z,10.70
2018-05-25T15:51:09.270Z,8.37
2018-05-25T15:53:40.076Z,10.17
2018-05-25T15:56:10.462Z,9.33
2018-05-25T15:58:41.573Z,8.27
2018-05-25T16:01:11.957Z,6.03
2018-05-25T16:03:42.001Z,13.17
2018-05-25T16:06:12.725Z,11.50
2018-05-25T16:08:43.117Z,13.13
2018-05-25T16:11:14.421Z,9.10
2018-05-25T16:13:45.637Z,9.67
2018-05-25T16:16:15.893Z,7.53
2018-05-25T16:18:46.196Z,10.00
2018-05-25T16:21:17.228Z,9.30
2018-05-25T16:23:47.399Z,10.87
2018-05-25T16:26:17.763Z,7.67
2018-05-25T16:28:48.165Z,9.17
2018-05-25T16:31:18.887Z,10.20
2018-05-25T16:33:49.253Z,8.93
2018-05-25T16:36:19.705Z,6.83
2018-05-25T16:38:50.260Z,12.37
2018-05-25T16:41:20.663Z,8.37
2018-05-25T16:43:50.973Z,9.97
2018-05-25T16:46:20.924Z,15.17
2018-05-25T16:48:50.661Z,6.33
2018-05-25T16:51:21.240Z,7.63
2018-05-25T16:53:51.770Z,8.27
2018-05-25T16:56:22.162Z,10.57
2018-05-25T16:58:52.427Z,13.10
2018-05-25T17:01:23.436Z,6.60
2018-05-25T17:03:53.896Z,6.50
2018-05-25T17:06:24.300Z,11.00
2018-05-25T17:08:54.532Z,10.43
2018-05-25T17:11:24.743Z,7.43
2018-05-25T17:13:55.408Z,8.40
2018-05-25T17:16:25.699Z,11.77
2018-05-25T17:18:56.034Z,11.20
2018-05-25T17:21:26.169Z,9.20
2018-05-25T17:23:56.405Z,5.60
2018-05-25T17:26:26.664Z,12.37
2018-05-25T17:28:56.685Z,7.10
2018-05-25T17:31:27.681Z,10.60
2018-05-25T17:33:58.102Z,8.67
2018-05-25T17:36:28.231Z,10.47
2018-05-25T17:38:58.462Z,7.67
2018-05-25T17:41:29.283Z,9.47
2018-05-25T17:43:59.806Z,10.07
2018-05-25T17:46:30.978Z,9.70
2018-05-25T17:49:01.689Z,10.23
2018-05-25T17:51:32.063Z,9.53
2018-05-25T17:54:02.389Z,8.97
2018-05-25T17:56:33.513Z,8.10
2018-05-25T17:59:04.288Z,9.40
2018-05-25T18:01:34.745Z,5.93
2018-05-25T18:04:05.152Z,7.50
2018-05-25T18:06:35.696Z,10.67
2018-05-25T18:09:07.168Z,6.27
2018-05-25T18:11:37.308Z,12.63
2018-05-25T18:14:07.611Z,11.90
2018-05-25T18:16:37.920Z,8.47
2018-05-25T18:19:08.658Z,9.37
2018-05-25T18:21:39.397Z,7.47
2018-05-25T18:24:09.861Z,10.83
2018-05-25T18:26:40.773Z,7.50
2018-05-25T18:29:11.754Z,7.57
2018-05-25T18:31:43.052Z,10.17
2018-05-25T18:34:13.867Z,9.33
2018-05-25T18:36:44.002Z,9.50
2018-05-25T18:39:14.156Z,9.33
2018-05-25T18:41:44.861Z,10.70
2018-05-25T18:44:15.377Z,7.80
2018-05-25T18:46:45.709Z,7.77
2018-05-25T18:49:16.458Z,5.23
2018-05-25T18:51:46.982Z,8.07
2018-05-25T18:54:28.498Z,6.47
2018-05-25T18:56:59.906Z,10.30
2018-05-25T18:59:30.751Z,10.20
2018-05-25T19:02:01.510Z,11.67
2018-05-25T19:04:32.371Z,8.37
2018-05-25T19:07:03.285Z,8.27
2018-05-25T19:09:33.998Z,9.30
2018-05-25T19:12:05.079Z,6.77
2018-05-25T19:14:36.298Z,8.43
2018-05-25T19:17:06.687Z,7.77
2018-05-25T19:19:37.425Z,9.60
2018-05-25T19:22:08.211Z,8.27
2018-05-25T19:24:39.085Z,6.33
2018-05-25T19:27:10.565Z,9.33
2018-05-25T19:29:40.827Z,7.13
2018-05-25T19:32:11.418Z,6.00
2018-05-25T19:34:41.938Z,7.77
2018-05-25T19:37:13.294Z,9.43
2018-05-25T19:39:43.822Z,8.23
2018-05-25T19:42:14.057Z,10.47
2018-05-25T19:44:44.195Z,10.87
2018-05-25T19:47:14.373Z,12.50
2018-05-25T19:49:44.515Z,9.57
2018-05-25T19:52:14.817Z,7.60
2018-05-25T19:54:44.969Z,5.57
2018-05-25T19:57:15.252Z,10.23
2018-05-25T19:59:45.447Z,7.90
2018-05-25T20:02:16.442Z,7.63
2018-05-25T20:04:46.618Z,9.00
2018-05-25T20:07:17.500Z,10.60
2018-05-25T20:09:48.635Z,11.17
2018-05-25T20:12:18.644Z,8.80
2018-05-25T20:14:48.865Z,8.00
2018-05-25T20:17:19.209Z,8.40
2018-05-25T20:19:49.260Z,12.57
2018-05-25T20:22:19.264Z,6.23
2018-05-25T20:24:49.526Z,8.83
2018-05-25T20:27:20.486Z,7.27
2018-05-25T20:29:50.744Z,7.43
2018-05-25T20:32:21.174Z,6.47
2018-05-25T20:34:51.182Z,7.80
2018-05-25T20:37:21.419Z,6.13
2018-05-25T20:39:51.732Z,5.13
2018-05-25T20:42:21.737Z,7.30
2018-05-25T20:44:51.968Z,4.27
2018-05-25T20:47:22.152Z,7.17
2018-05-25T20:49:52.299Z,7.20
2018-05-25T20:52:22.768Z,5.73
2018-05-25T20:54:53.243Z,9.67
2018-05-25T20:57:23.383Z,10.50
2018-05-25T20:59:53.596Z,6.70
2018-05-25T21:02:24.222Z,4.77
2018-05-25T21:04:54.670Z,10.17
2018-05-25T21:07:24.889Z,5.70
2018-05-25T21:09:55.115Z,4.97
2018-05-25T21:12:26.342Z,8.50
2018-05-25T21:14:56.577Z,7.10
2018-05-25T21:17:27.091Z,9.30
2018-05-25T21:19:57.131Z,7.57
2018-05-25T21:22:27.284Z,7.73
2018-05-25T21:24:58.304Z,6.73
2018-05-25T21:27:28.524Z,6.03
2018-05-25T21:29:58.965Z,9.27
2018-05-25T21:32:29.812Z,10.00
2018-05-25T21:34:59.995Z,6.30
2018-05-25T21:37:30.417Z,6.83
2018-05-25T21:40:00.716Z,6.10
2018-05-25T21:42:30.922Z,6.50
2018-05-25T21:45:02.147Z,6.77
2018-05-25T21:47:32.661Z,5.80
2018-05-25T21:50:03.137Z,8.90
2018-05-25T21:52:33.413Z,8.23
2018-05-25T21:55:03.496Z,4.63
2018-05-25T21:57:34.057Z,4.87
2018-05-25T22:00:04.208Z,6.60
2018-05-25T22:02:35.216Z,5.53
2018-05-25T22:05:05.706Z,9.90
2018-05-25T22:07:36.140Z,7.00
2018-05-25T22:10:06.344Z,7.87
2018-05-25T22:12:36.801Z,8.93
2018-05-25T22:15:07.266Z,7.60
2018-05-25T22:17:37.859Z,5.43
2018-05-25T22:20:08.016Z,6.60
2018-05-25T22:22:38.674Z,6.93
2018-05-25T22:25:09.983Z,6.07
2018-05-25T22:27:40.376Z,6.37
2018-05-25T22:30:10.835Z,6.03
2018-05-25T22:32:42.186Z,10.57
2018-05-25T22:35:12.405Z,7.97
2018-05-25T22:37:42.590Z,9.00
2018-05-25T22:40:12.937Z,7.27
2018-05-25T22:42:54.226Z,7.00
2018-05-25T22:45:35.617Z,5.17
2018-05-25T22:48:17.341Z,11.40
2018-05-25T22:50:59.542Z,5.97
2018-05-25T22:53:34.529Z,4.83
2018-05-25T22:56:04.581Z,7.37
2018-05-25T22:58:34.893Z,6.27
2018-05-25T23:01:05.158Z,4.97
2018-05-25T23:03:36.155Z,8.43
2018-05-25T23:06:06.162Z,7.27
2018-05-25T23:08:36.312Z,6.07
2018-05-25T23:11:06.447Z,6.47
2018-05-25T23:13:36.443Z,6.87
2018-05-25T23:16:07.168Z,4.33
2018-05-25T23:18:37.894Z,7.67
2018-05-25T23:21:08.228Z,5.50
2018-05-25T23:23:38.217Z,6.03
2018-05-25T23:26:08.453Z,4.50
2018-05-25T23:28:40.231Z,4.27
2018-05-25T23:31:10.418Z,6.83
2018-05-25T23:33:40.668Z,5.83
2018-05-25T23:36:10.775Z,5.87
2018-05-25T23:38:50.955Z,4.77
2018-05-25T23:41:21.935Z,6.70
2018-05-25T23:43:52.830Z,6.30
2018-05-25T23:46:22.886Z,6.00
2018-05-25T23:48:53.702Z,7.90
2018-05-25T23:51:24.020Z,6.30
2018-05-25T23:53:54.027Z,6.80
2018-05-25T23:56:24.449Z,3.67
2018-05-25T23:58:54.598Z,4.23
